createdAt,value
2022-09-25T00:00:00.000Z,37.35
2022-09-25T00:15:00.000Z,38.42
2022-09-25T00:30:00.000Z,39.56
2022-09-25T00:45:00.000Z,40.91
2022-09-25T01:00:00.000Z,41.21
2022-09-25T01:15:00.000Z,40.96
2022-09-25T01:30:00.000Z,41.39
2022-09-25T01:45:00.000Z,41.78
2022-09-25T02:00:00.000Z,43.58
2022-09-25T02:15:00.000Z,41.76
2022-09-25T02:30:00.000Z,41.87
2022-09-25T02:45:00.000Z,42
2022-09-25T03:00:00.000Z,41.82
2022-09-25T03:15:00.000Z,40.59
2022-09-25T03:30:00.000Z,40.29
2022-09-25T03:45:00.000Z,40.84
2022-09-25T04:00:00.000Z,38.42
2022-09-25T04:15:00.000Z,38.78
2022-09-25T04:30:00.000Z,39.75
2022-09-25T04:45:00.000Z,40.39
2022-09-25T05:00:00.000Z,40.12
2022-09-25T05:15:00.000Z,40.26
2022-09-25T05:30:00.000Z,41.67
2022-09-25T05:45:00.000Z,41.76
2022-09-25T06:00:00.000Z,41.15
2022-09-25T06:15:00.000Z,42.06
2022-09-25T06:30:00.000Z,39.36
2022-09-25T06:45:00.000Z,38.2
2022-09-25T07:00:00.000Z,39.44
2022-09-25T07:15:00.000Z,41.39
2022-09-25T07:30:00.000Z,40.58
2022-09-25T07:45:00.000Z,40.41
2022-09-25T08:00:00.000Z,39.27
2022-09-25T08:15:00.000Z,41.22
2022-09-25T08:30:00.000Z,39.55
2022-09-25T08:45:00.000Z,39.64
2022-09-25T09:00:00.000Z,36.22
2022-09-25T09:15:00.000Z,34.86
2022-09-25T09:30:00.000Z,34.34
2022-09-25T09:45:00.000Z,32.26
2022-09-25T10:00:00.000Z,32.93
2022-09-25T10:15:00.000Z,32.71
2022-09-25T10:30:00.000Z,31.36
2022-09-25T10:45:00.000Z,32.33
2022-09-25T11:00:00.000Z,32.24
2022-09-25T11:15:00.000Z,33.11
2022-09-25T11:30:00.000Z,33.31
2022-09-25T11:45:00.000Z,34.45
2022-09-25T12:00:00.000Z,35.34
2022-09-25T12:15:00.000Z,34.92
2022-09-25T12:30:00.000Z,33.34
2022-09-25T12:45:00.000Z,35.78
2022-09-25T13:00:00.000Z,34.31
2022-09-25T13:15:00.000Z,33.61
2022-09-25T13:30:00.000Z,34.47
2022-09-25T13:45:00.000Z,31.47
2022-09-25T14:00:00.000Z,34.16
2022-09-25T14:15:00.000Z,33.88
2022-09-25T14:30:00.000Z,35.22
2022-09-25T14:45:00.000Z,41.26
2022-09-25T15:00:00.000Z,41.29
2022-09-25T15:15:00.000Z,45.99
2022-09-25T15:30:00.000Z,43.35
2022-09-25T15:45:00.000Z,78.05
2022-09-25T16:00:00.000Z,56.98
2022-09-25T16:15:00.000Z,35.88
2022-09-25T16:30:00.000Z,30.36
2022-09-25T16:45:00.000Z,35.13
2022-09-25T17:00:00.000Z,35.32
2022-09-25T17:15:00.000Z,25.87
2022-09-25T17:30:00.000Z,16.63
2022-09-25T17:45:00.000Z,17.4
2022-09-25T18:00:00.000Z,15.19
2022-09-25T18:15:00.000Z,10.2
2022-09-25T18:30:00.000Z,10.85
2022-09-25T18:45:00.000Z,13.95
2022-09-25T19:00:00.000Z,9.12
2022-09-25T19:15:00.000Z,7.32
2022-09-25T19:30:00.000Z,9.41
2022-09-25T19:45:00.000Z,8.68
2022-09-25T20:00:00.000Z,10.32
2022-09-25T20:15:00.000Z,16.96
2022-09-25T20:30:00.000Z,16.61
2022-09-25T20:45:00.000Z,17.48
2022-09-25T21:00:00.000Z,17.38
2022-09-25T21:15:00.000Z,15.34
2022-09-25T21:30:00.000Z,15.76
2022-09-25T21:45:00.000Z,14.82
2022-09-25T22:00:00.000Z,12.99
2022-09-25T22:15:00.000Z,9.74
2022-09-25T22:30:00.000Z,14.89
2022-09-25T22:45:00.000Z,20.07
2022-09-25T23:00:00.000Z,21.32
2022-09-25T23:15:00.000Z,21.02
2022-09-25T23:30:00.000Z,16.4
2022-09-25T23:45:00.000Z,10.45
